Time;durP1;ratioP1;P1;durP2;ratioP2;P2;SDS_P1;SDS_P2;PMS_P1;PMS_P2;Temp;Humidity;BMP_temperature;BMP_pressure;BME280_temperature;BME280_humidity;BME280_pressure;Samples;Min_cycle;Max_cycle;Signal;HPM_P1;HPM_P2
2021/04/29 00:01:49;;;;;;;11.07;9.87;;;14.30;99.90;;;;;;5013014;28;20221;-60
2021/04/29 00:04:16;;;;;;;12.43;11.23;;;14.30;99.90;;;;;;5013175;28;20769;-61
2021/04/29 00:06:41;;;;;;;12.17;11.00;;;14.10;99.90;;;;;;5013318;28;20252;-60
2021/04/29 00:09:08;;;;;;;11.63;10.43;;;14.10;99.90;;;;;;5013179;28;20437;-61
2021/04/29 00:11:34;;;;;;;12.30;9.77;;;14.10;99.90;;;;;;5013061;28;20174;-61
2021/04/29 00:14:00;;;;;;;12.03;10.93;;;14.00;99.90;;;;;;5013362;28;20468;-60
2021/04/29 00:16:26;;;;;;;14.10;12.70;;;14.00;99.90;;;;;;5013206;28;20442;-61
2021/04/29 00:18:52;;;;;;;14.00;12.60;;;14.10;99.90;;;;;;5013135;28;20429;-61
2021/04/29 00:21:18;;;;;;;14.53;12.70;;;14.00;99.90;;;;;;5013515;28;20176;-61
2021/04/29 00:23:43;;;;;;;13.53;12.17;;;13.90;99.90;;;;;;5013359;28;20710;-60
2021/04/29 00:26:09;;;;;;;15.33;13.93;;;13.80;99.90;;;;;;5012926;28;20172;-60
2021/04/29 00:28:35;;;;;;;12.93;11.23;;;13.80;99.90;;;;;;5013340;28;20655;-61
2021/04/29 00:31:00;;;;;;;13.47;12.27;;;13.70;99.90;;;;;;5012756;28;20191;-60
2021/04/29 00:33:26;;;;;;;13.13;11.73;;;13.80;99.90;;;;;;5012999;28;20204;-61
2021/04/29 00:35:51;;;;;;;13.47;12.07;;;13.80;99.90;;;;;;5016926;28;20174;-61
2021/04/29 00:38:17;;;;;;;12.23;11.03;;;14.00;99.90;;;;;;5010726;28;20176;-60
2021/04/29 00:40:43;;;;;;;13.50;12.20;;;14.00;99.90;;;;;;5016645;28;20238;-59
2021/04/29 00:43:13;;;;;;;12.97;11.70;;;13.80;99.90;;;;;;5016357;28;20199;-60
2021/04/29 00:45:39;;;;;;;14.40;13.10;;;13.80;99.90;;;;;;5016195;28;20189;-61
2021/04/29 00:48:05;;;;;;;12.90;11.80;;;13.90;99.90;;;;;;5016918;28;20410;-59
2021/04/29 00:50:31;;;;;;;12.57;11.17;;;13.90;99.90;;;;;;5016244;28;20453;-59
2021/04/29 00:52:57;;;;;;;13.93;12.53;;;13.90;99.90;;;;;;5016140;28;20794;-60
2021/04/29 00:55:23;;;;;;;14.20;11.23;;;13.90;99.90;;;;;;5016568;28;20195;-60
2021/04/29 00:57:48;;;;;;;13.60;12.20;;;13.90;99.90;;;;;;5016548;28;20173;-60
2021/04/29 01:00:16;;;;;;;13.37;12.03;;;13.80;99.90;;;;;;5018787;28;20411;-59
2021/04/29 01:02:48;;;;;;;13.83;12.53;;;13.80;99.90;;;;;;5016014;28;20263;-61
2021/04/29 01:05:32;;;;;;;12.53;11.33;;;13.90;99.90;;;;;;5015842;28;20441;-60
2021/04/29 01:08:07;;;;;;;13.20;12.00;;;13.90;99.90;;;;;;5015103;28;20415;-60
2021/04/29 01:10:43;;;;;;;10.97;9.93;;;13.90;99.90;;;;;;5015981;28;20416;-60
2021/04/29 01:13:12;;;;;;;10.60;9.60;;;13.90;99.90;;;;;;5015842;28;20424;-60
2021/04/29 01:15:40;;;;;;;11.77;10.20;;;14.10;99.90;;;;;;5016785;28;20408;-59
2021/04/29 01:18:08;;;;;;;9.40;8.50;;;14.20;99.90;;;;;;5016050;28;20405;-58
2021/04/29 01:20:40;;;;;;;8.63;7.93;;;14.30;99.90;;;;;;5016022;28;20399;-60
2021/04/29 01:23:36;;;;;;;9.70;8.80;;;14.30;99.90;;;;;;5015557;28;20447;-60
2021/04/29 01:26:25;;;;;;;8.70;7.90;;;14.40;99.90;;;;;;5016105;28;20409;-60
2021/04/29 01:28:53;;;;;;;8.37;7.63;;;14.40;99.90;;;;;;5015841;28;20396;-61
2021/04/29 01:31:22;;;;;;;8.63;7.87;;;14.40;99.90;;;;;;5015499;28;20776;-60
2021/04/29 01:33:49;;;;;;;8.93;8.10;;;14.60;99.90;;;;;;5015400;28;20451;-61
2021/04/29 01:36:15;;;;;;;7.60;6.93;;;14.60;99.90;;;;;;5014378;28;20425;-60
2021/04/29 01:38:41;;;;;;;6.90;6.30;;;14.60;99.90;;;;;;5015378;28;20948;-61
2021/04/29 01:41:07;;;;;;;7.90;7.20;;;14.40;99.90;;;;;;5015616;28;20411;-61
2021/04/29 01:43:37;;;;;;;7.93;7.23;;;14.50;99.90;;;;;;5016457;28;20466;-61
2021/04/29 01:46:03;;;;;;;6.43;5.73;;;14.60;99.90;;;;;;5013199;28;20435;-60
2021/04/29 01:48:30;;;;;;;6.20;5.60;;;14.50;99.90;;;;;;5015453;28;20499;-60
2021/04/29 01:50:56;;;;;;;5.80;5.30;;;14.50;99.90;;;;;;5014861;28;20409;-61
2021/04/29 01:53:24;;;;;;;4.03;3.63;;;14.40;99.90;;;;;;5015345;28;20429;-60
2021/04/29 01:55:50;;;;;;;4.57;4.17;;;14.60;99.90;;;;;;5015383;28;20404;-61
2021/04/29 01:58:15;;;;;;;3.80;3.00;;;14.60;99.90;;;;;;5015750;28;20729;-60
2021/04/29 02:00:41;;;;;;;3.93;3.57;;;14.60;99.90;;;;;;5015561;28;20170;-60
2021/04/29 02:03:07;;;;;;;4.00;3.70;;;14.40;99.90;;;;;;5015053;28;20647;-61
2021/04/29 02:05:32;;;;;;;4.27;3.93;;;14.60;99.90;;;;;;5015110;28;20174;-61
2021/04/29 02:07:58;;;;;;;2.93;2.73;;;14.70;99.90;;;;;;5015201;28;20175;-61
2021/04/29 02:10:24;;;;;;;3.40;3.07;;;14.80;99.90;;;;;;5015086;28;20178;-60
2021/04/29 02:12:57;;;;;;;2.67;2.47;;;14.70;99.90;;;;;;5014660;28;20197;-59
2021/04/29 02:15:37;;;;;;;2.80;2.60;;;14.50;99.90;;;;;;5015018;28;20770;-61
2021/04/29 02:18:07;;;;;;;2.60;2.20;;;14.50;99.90;;;;;;5014539;28;20494;-60
2021/04/29 02:20:35;;;;;;;2.40;2.20;;;14.60;99.90;;;;;;5015010;28;20398;-60
2021/04/29 02:23:03;;;;;;;2.23;2.03;;;14.60;99.90;;;;;;5014783;28;20435;-60
2021/04/29 02:25:30;;;;;;;2.50;2.30;;;14.70;99.90;;;;;;5014789;28;20408;-60
2021/04/29 02:27:57;;;;;;;2.20;2.00;;;14.50;99.90;;;;;;5014540;28;20890;-59
2021/04/29 02:30:25;;;;;;;2.23;2.03;;;14.50;99.90;;;;;;5014401;28;20412;-61
2021/04/29 02:32:50;;;;;;;2.60;2.00;;;14.50;99.90;;;;;;5014273;28;20437;-60
2021/04/29 02:35:17;;;;;;;1.80;1.70;;;14.50;99.90;;;;;;5014306;28;20402;-59
2021/04/29 02:37:46;;;;;;;1.60;1.50;;;14.40;99.90;;;;;;5014458;28;20183;-61
2021/04/29 02:40:13;;;;;;;1.50;1.40;;;14.30;99.90;;;;;;5014477;28;20459;-60
2021/04/29 02:42:40;;;;;;;1.60;1.10;;;14.30;99.90;;;;;;5014165;28;20414;-61
2021/04/29 02:45:11;;;;;;;1.70;1.50;;;14.30;99.90;;;;;;5014646;28;20860;-60
2021/04/29 02:47:43;;;;;;;1.60;1.50;;;14.30;99.90;;;;;;5014388;28;20385;-60
2021/04/29 02:50:11;;;;;;;1.50;1.13;;;14.50;99.90;;;;;;5014586;28;20438;-61
2021/04/29 02:52:38;;;;;;;2.20;1.37;;;14.40;99.90;;;;;;5013877;28;20495;-58
2021/04/29 02:55:06;;;;;;;2.20;1.83;;;14.30;99.90;;;;;;5014371;28;20410;-59
2021/04/29 02:57:32;;;;;;;1.77;1.30;;;14.40;99.90;;;;;;5013706;28;20421;-60
2021/04/29 02:59:58;;;;;;;1.43;1.33;;;14.40;99.90;;;;;;5014206;28;20417;-61
2021/04/29 03:02:24;;;;;;;2.30;1.60;;;14.30;99.90;;;;;;5013906;28;20779;-60
2021/04/29 03:04:49;;;;;;;2.10;1.43;;;14.10;99.90;;;;;;5015088;28;20281;-61
2021/04/29 03:07:15;;;;;;;1.80;1.70;;;13.80;99.90;;;;;;5014940;28;20172;-60
2021/04/29 03:09:41;;;;;;;1.60;1.50;;;13.60;99.90;;;;;;5013896;28;20216;-60
2021/04/29 03:12:07;;;;;;;1.93;1.80;;;13.50;99.90;;;;;;5013759;28;20267;-59
2021/04/29 03:14:33;;;;;;;1.60;1.50;;;13.50;99.90;;;;;;5013634;28;20200;-60
2021/04/29 03:16:58;;;;;;;1.70;1.40;;;13.50;99.90;;;;;;5013711;28;20415;-60
2021/04/29 03:19:24;;;;;;;1.80;1.70;;;13.50;99.90;;;;;;5013709;28;20902;-60
2021/04/29 03:21:50;;;;;;;1.73;1.57;;;13.30;99.90;;;;;;5013829;28;20187;-60
2021/04/29 03:24:16;;;;;;;1.50;1.20;;;13.50;99.90;;;;;;5013749;28;20291;-60
2021/04/29 03:26:41;;;;;;;1.33;1.23;;;13.50;99.90;;;;;;5013635;28;20167;-61
2021/04/29 03:29:07;;;;;;;1.40;1.30;;;13.50;99.90;;;;;;5013113;28;20169;-62
2021/04/29 03:31:32;;;;;;;3.37;1.60;;;13.50;99.90;;;;;;5011753;28;20177;-61
2021/04/29 03:33:58;;;;;;;1.43;1.33;;;13.70;99.90;;;;;;5013561;28;20207;-60
2021/04/29 03:36:24;;;;;;;1.40;1.30;;;13.80;99.90;;;;;;5013604;28;20180;-59
2021/04/29 03:38:49;;;;;;;2.03;1.37;;;13.60;99.90;;;;;;5012682;28;20588;-60
2021/04/29 03:41:15;;;;;;;1.40;1.20;;;13.50;99.90;;;;;;5013434;28;20181;-60
2021/04/29 03:43:40;;;;;;;1.73;0.90;;;13.30;99.90;;;;;;5013154;28;20256;-60
2021/04/29 03:46:06;;;;;;;1.17;1.07;;;13.40;99.90;;;;;;5013260;28;20186;-61
2021/04/29 03:48:32;;;;;;;1.10;1.00;;;13.50;99.90;;;;;;5013312;28;20658;-60
2021/04/29 03:50:58;;;;;;;1.03;0.90;;;13.30;99.90;;;;;;5013108;28;20581;-60
2021/04/29 03:53:24;;;;;;;1.30;1.20;;;13.20;99.90;;;;;;5013368;28;20459;-60
2021/04/29 03:55:49;;;;;;;2.73;1.23;;;13.10;99.90;;;;;;5013199;28;20497;-60
2021/04/29 03:58:15;;;;;;;1.30;1.20;;;13.10;99.90;;;;;;5013495;28;20606;-60
2021/04/29 04:00:41;;;;;;;1.47;1.10;;;13.00;99.90;;;;;;5013100;28;20168;-60
2021/04/29 04:03:06;;;;;;;1.03;0.87;;;12.90;99.90;;;;;;5012747;28;20288;-60
2021/04/29 04:05:32;;;;;;;1.53;0.90;;;13.00;99.90;;;;;;5013152;28;20177;-60
2021/04/29 04:07:58;;;;;;;1.73;0.80;;;12.90;99.90;;;;;;5012895;28;20691;-60
2021/04/29 04:10:23;;;;;;;1.03;0.90;;;12.90;99.90;;;;;;5016538;28;20172;-60
2021/04/29 04:12:49;;;;;;;1.20;1.10;;;13.20;99.90;;;;;;5017144;28;20255;-59
2021/04/29 04:15:14;;;;;;;1.27;1.17;;;13.30;99.90;;;;;;5017216;28;20213;-61
2021/04/29 04:17:40;;;;;;;1.00;0.87;;;13.50;99.90;;;;;;5016617;28;20178;-61
2021/04/29 04:20:06;;;;;;;1.13;1.03;;;13.40;99.90;;;;;;5017415;28;20262;-61
2021/04/29 04:22:32;;;;;;;1.97;1.10;;;13.40;99.90;;;;;;5016595;28;20173;-61
2021/04/29 04:24:57;;;;;;;1.03;0.83;;;13.40;99.90;;;;;;5016947;28;20468;-61
2021/04/29 04:27:23;;;;;;;1.20;1.10;;;13.50;99.90;;;;;;5017063;28;20178;-58
2021/04/29 04:29:48;;;;;;;1.10;1.00;;;13.40;99.90;;;;;;5016696;28;20196;-61
2021/04/29 04:32:14;;;;;;;2.20;1.33;;;13.20;99.90;;;;;;5016359;28;20181;-60
2021/04/29 04:34:40;;;;;;;3.10;1.10;;;13.30;99.90;;;;;;5016733;28;20199;-60
2021/04/29 04:37:05;;;;;;;1.30;1.20;;;13.50;99.90;;;;;;5016394;28;20204;-61
2021/04/29 04:39:33;;;;;;;1.20;1.10;;;13.30;99.90;;;;;;5016556;28;20171;-61
2021/04/29 04:41:59;;;;;;;1.73;0.90;;;13.50;99.90;;;;;;5016402;28;20168;-60
2021/04/29 04:44:24;;;;;;;1.90;1.27;;;13.60;99.90;;;;;;5016096;28;20480;-61
2021/04/29 04:46:50;;;;;;;1.50;1.40;;;13.60;99.90;;;;;;5016377;28;20172;-60
2021/04/29 04:49:15;;;;;;;1.67;1.30;;;13.50;99.90;;;;;;5016658;28;20301;-61
2021/04/29 04:51:42;;;;;;;1.33;1.07;;;13.50;99.90;;;;;;5016302;28;20248;-60
2021/04/29 04:54:07;;;;;;;2.20;1.20;;;13.70;99.90;;;;;;5016497;28;20289;-60
2021/04/29 04:56:33;;;;;;;1.47;1.33;;;13.60;99.90;;;;;;5016409;28;20486;-60
2021/04/29 04:59:00;;;;;;;1.30;1.20;;;13.60;99.90;;;;;;5016222;28;20181;-60
2021/04/29 05:01:26;;;;;;;0.93;0.90;;;13.70;99.90;;;;;;5016212;28;20592;-60
2021/04/29 05:03:53;;;;;;;5.60;1.87;;;13.80;99.90;;;;;;5016062;28;20527;-60
2021/04/29 05:06:19;;;;;;;2.80;1.50;;;13.70;99.90;;;;;;5016294;28;20785;-61
2021/04/29 05:08:44;;;;;;;2.40;1.60;;;13.60;99.90;;;;;;5016627;28;20407;-57
2021/04/29 05:11:10;;;;;;;2.47;1.73;;;13.40;99.90;;;;;;5018665;28;20699;-60
2021/04/29 05:13:35;;;;;;;1.90;1.67;;;13.50;99.90;;;;;;5016186;28;20204;-60
2021/04/29 05:16:01;;;;;;;1.90;1.80;;;13.60;99.90;;;;;;5015794;28;20186;-60
2021/04/29 05:18:27;;;;;;;2.27;1.57;;;13.70;99.90;;;;;;5015941;28;20172;-60
2021/04/29 05:20:53;;;;;;;2.13;1.90;;;13.70;99.90;;;;;;5015793;28;20185;-60
2021/04/29 05:23:19;;;;;;;3.03;2.17;;;13.80;99.90;;;;;;5015415;28;20437;-60
2021/04/29 05:25:44;;;;;;;1.80;1.70;;;13.90;99.90;;;;;;5015814;28;20173;-60
2021/04/29 05:28:10;;;;;;;2.50;2.30;;;13.70;99.90;;;;;;5015940;28;20169;-60
2021/04/29 05:30:36;;;;;;;4.20;2.57;;;13.80;99.90;;;;;;5015790;28;20668;-60
2021/04/29 05:33:02;;;;;;;3.40;2.43;;;13.90;99.90;;;;;;5015417;28;20188;-60
2021/04/29 05:35:27;;;;;;;2.60;2.40;;;14.00;99.90;;;;;;5015749;28;20425;-60
2021/04/29 05:37:53;;;;;;;2.73;2.20;;;14.10;99.90;;;;;;5015539;28;20591;-60
2021/04/29 05:40:19;;;;;;;3.30;2.73;;;14.20;99.90;;;;;;5015623;28;20175;-60
2021/04/29 05:42:44;;;;;;;4.53;2.40;;;14.10;99.90;;;;;;5015079;28;20174;-60
2021/04/29 05:45:11;;;;;;;2.60;2.40;;;14.10;99.90;;;;;;5015272;28;20197;-60
2021/04/29 05:47:36;;;;;;;3.20;2.80;;;14.20;99.90;;;;;;5014895;28;20174;-60
2021/04/29 05:50:04;;;;;;;3.50;3.13;;;14.00;99.90;;;;;;5014972;28;20412;-60
2021/04/29 05:52:30;;;;;;;4.60;3.43;;;14.10;99.90;;;;;;5015207;28;20177;-60
2021/04/29 05:54:57;;;;;;;4.33;2.97;;;14.00;99.90;;;;;;5015286;28;20416;-60
2021/04/29 05:57:23;;;;;;;3.53;2.63;;;14.00;99.90;;;;;;5015136;28;20416;-58
2021/04/29 05:59:48;;;;;;;6.60;3.57;;;14.10;99.90;;;;;;5014918;28;20932;-61
2021/04/29 06:02:14;;;;;;;3.67;3.37;;;14.10;99.90;;;;;;5013570;28;20950;-60
2021/04/29 06:04:40;;;;;;;4.07;3.40;;;14.20;99.90;;;;;;5014505;28;20206;-60
2021/04/29 06:07:05;;;;;;;5.80;3.80;;;14.20;99.90;;;;;;5014624;28;20577;-60
2021/04/29 06:09:31;;;;;;;4.87;3.67;;;14.10;99.90;;;;;;5014984;28;20211;-60
2021/04/29 06:11:56;;;;;;;3.87;3.10;;;13.80;99.90;;;;;;5014938;28;20191;-61
2021/04/29 06:14:22;;;;;;;3.83;3.13;;;14.00;99.90;;;;;;5014769;28;20564;-60
2021/04/29 06:16:48;;;;;;;8.10;4.17;;;13.90;99.90;;;;;;5014643;28;20593;-59
2021/04/29 06:19:13;;;;;;;3.60;3.30;;;14.20;99.90;;;;;;5015177;28;20205;-60
2021/04/29 06:21:39;;;;;;;5.80;3.77;;;14.20;99.90;;;;;;5014503;28;20178;-59
2021/04/29 06:24:05;;;;;;;3.60;3.30;;;14.20;99.90;;;;;;5002803;28;20219;-60
2021/04/29 06:26:31;;;;;;;7.13;3.53;;;14.30;99.90;;;;;;5014282;28;20547;-58
2021/04/29 06:28:57;;;;;;;4.03;3.00;;;14.10;99.90;;;;;;5014762;28;20415;-60
2021/04/29 06:31:22;;;;;;;4.80;4.23;;;14.20;99.90;;;;;;5013703;28;20427;-58
2021/04/29 06:33:48;;;;;;;5.10;3.97;;;14.50;99.90;;;;;;5014152;28;20250;-60
2021/04/29 06:36:14;;;;;;;7.17;4.13;;;14.50;99.90;;;;;;5014711;28;20178;-60
2021/04/29 06:38:39;;;;;;;5.23;4.03;;;14.70;99.90;;;;;;5013744;28;20210;-60
2021/04/29 06:41:05;;;;;;;7.63;4.67;;;14.70;99.90;;;;;;5014088;28;20710;-58
2021/04/29 06:43:31;;;;;;;4.20;3.80;;;14.70;99.90;;;;;;5013843;28;20239;-60
2021/04/29 06:45:56;;;;;;;7.27;4.60;;;14.70;99.90;;;;;;5014346;28;20178;-60
2021/04/29 06:48:22;;;;;;;7.07;4.50;;;14.60;99.90;;;;;;5013688;28;20260;-59
2021/04/29 06:50:49;;;;;;;8.70;4.33;;;14.90;99.90;;;;;;5014465;28;20175;-60
2021/04/29 06:53:14;;;;;;;7.37;5.00;;;15.20;99.90;;;;;;5014273;28;20205;-59
2021/04/29 06:55:40;;;;;;;7.30;4.30;;;15.50;99.90;;;;;;5013995;28;20902;-59
2021/04/29 06:58:06;;;;;;;6.83;4.73;;;15.40;99.90;;;;;;5014028;28;20182;-59
2021/04/29 07:00:33;;;;;;;5.73;4.53;;;15.20;99.90;;;;;;5014121;28;20176;-60
2021/04/29 07:02:59;;;;;;;6.43;5.10;;;15.20;99.90;;;;;;5013175;28;20199;-58
2021/04/29 07:05:26;;;;;;;5.40;4.87;;;15.60;99.90;;;;;;5014091;28;20451;-60
2021/04/29 07:07:56;;;;;;;4.90;4.20;;;15.60;99.90;;;;;;5013868;28;20416;-60
2021/04/29 07:10:23;;;;;;;8.20;5.50;;;15.80;99.90;;;;;;5014133;28;20465;-60
2021/04/29 07:12:49;;;;;;;6.70;5.57;;;15.60;99.90;;;;;;5013855;28;20410;-60
2021/04/29 07:15:16;;;;;;;5.90;5.30;;;15.70;99.90;;;;;;5014065;28;20902;-59
2021/04/29 07:17:42;;;;;;;6.13;5.53;;;15.70;99.90;;;;;;5013895;28;20509;-60
2021/04/29 07:20:08;;;;;;;5.43;4.70;;;15.60;99.90;;;;;;5016295;28;20963;-60
2021/04/29 07:22:34;;;;;;;7.10;5.77;;;15.70;99.90;;;;;;5028490;28;20422;-59
2021/04/29 07:24:59;;;;;;;5.90;5.30;;;16.00;99.90;;;;;;5013366;28;20534;-59
2021/04/29 07:27:25;;;;;;;5.53;5.03;;;16.30;99.90;;;;;;5013160;28;20167;-60
2021/04/29 07:29:51;;;;;;;6.43;5.80;;;16.20;99.90;;;;;;5014067;28;20171;-60
2021/04/29 07:32:17;;;;;;;7.50;5.20;;;16.40;99.90;;;;;;5013652;28;20223;-60
2021/04/29 07:34:42;;;;;;;6.10;5.50;;;16.50;99.90;;;;;;5013817;28;20199;-60
2021/04/29 07:37:08;;;;;;;5.57;5.07;;;16.40;99.90;;;;;;5013476;28;20899;-60
2021/04/29 07:39:33;;;;;;;6.63;5.60;;;16.40;99.90;;;;;;5013733;28;20181;-60
2021/04/29 07:41:59;;;;;;;6.67;5.40;;;16.00;99.90;;;;;;5013288;28;20174;-60
2021/04/29 07:44:25;;;;;;;6.93;6.27;;;15.90;99.90;;;;;;5042138;22;20280;-59
2021/04/29 07:46:51;;;;;;;5.63;5.13;;;15.40;99.90;;;;;;5033182;28;20641;-60
2021/04/29 07:49:16;;;;;;;5.33;4.83;;;15.40;99.90;;;;;;5031076;28;20175;-59
2021/04/29 07:51:42;;;;;;;8.63;6.10;;;15.70;99.90;;;;;;5033200;28;20166;-60
2021/04/29 07:54:08;;;;;;;7.13;6.20;;;15.70;99.90;;;;;;5033432;28;20216;-58
2021/04/29 07:56:34;;;;;;;5.50;5.00;;;15.70;99.90;;;;;;5033188;28;20183;-59
2021/04/29 07:59:00;;;;;;;6.90;5.33;;;16.00;99.90;;;;;;5032778;28;20177;-60
2021/04/29 08:01:26;;;;;;;6.17;5.43;;;16.30;99.90;;;;;;5033446;28;20428;-60
2021/04/29 08:03:51;;;;;;;7.30;5.20;;;16.40;99.90;;;;;;5033051;28;20894;-61
2021/04/29 08:06:17;;;;;;;6.20;5.33;;;16.60;99.90;;;;;;5033272;28;20220;-59
2021/04/29 08:08:42;;;;;;;6.20;5.33;;;16.90;99.90;;;;;;5033770;28;20236;-61
2021/04/29 08:11:12;;;;;;;6.23;5.63;;;16.90;99.90;;;;;;5033165;28;20177;-64
2021/04/29 08:13:38;;;;;;;7.30;6.00;;;16.60;99.90;;;;;;5033121;28;20173;-58
2021/04/29 08:16:04;;;;;;;8.93;7.20;;;16.60;99.90;;;;;;5032851;28;20436;-60
2021/04/29 08:18:30;;;;;;;7.83;7.03;;;16.50;99.90;;;;;;5033230;28;20786;-60
2021/04/29 08:20:55;;;;;;;11.13;8.07;;;16.20;99.90;;;;;;5032991;28;20918;-58
2021/04/29 08:23:21;;;;;;;8.33;7.33;;;16.20;99.90;;;;;;5033084;28;20173;-58
2021/04/29 08:25:46;;;;;;;8.47;7.57;;;16.50;99.90;;;;;;5033186;28;20190;-57
2021/04/29 08:28:12;;;;;;;8.00;7.30;;;16.70;99.90;;;;;;5033225;28;20646;-60
2021/04/29 08:30:38;;;;;;;8.50;7.47;;;16.80;99.90;;;;;;5032424;28;20638;-58
2021/04/29 08:33:03;;;;;;;8.50;7.30;;;16.90;99.90;;;;;;5032798;28;20247;-59
2021/04/29 08:35:29;;;;;;;10.57;8.50;;;16.90;99.90;;;;;;5031184;28;20701;-52
2021/04/29 08:37:56;;;;;;;9.20;7.70;;;17.00;99.90;;;;;;5023966;28;20182;-59
2021/04/29 08:40:24;;;;;;;9.97;7.67;;;17.20;99.90;;;;;;5032978;28;20419;-58
2021/04/29 08:42:50;;;;;;;8.40;7.70;;;17.40;99.90;;;;;;5045621;28;20405;-58
2021/04/29 08:45:16;;;;;;;9.97;8.57;;;17.60;99.90;;;;;;5051928;28;20457;-60
2021/04/29 08:47:47;;;;;;;8.73;7.80;;;17.60;99.70;;;;;;5048503;28;20179;-54
2021/04/29 08:50:12;;;;;;;9.73;8.13;;;17.30;99.90;;;;;;5032817;28;20429;-57
2021/04/29 08:52:39;;;;;;;8.40;7.57;;;17.50;99.90;;;;;;5032885;28;20398;-57
2021/04/29 08:55:08;;;;;;;8.43;7.57;;;17.60;99.50;;;;;;5047269;28;20191;-60
2021/04/29 08:57:34;;;;;;;9.50;7.50;;;17.40;99.90;;;;;;5056589;28;20484;-60
2021/04/29 09:00:01;;;;;;;8.47;7.73;;;17.50;99.00;;;;;;5055572;28;20491;-57
2021/04/29 09:02:37;;;;;;;8.47;7.60;;;17.20;99.00;;;;;;5044291;28;20187;-60
2021/04/29 09:05:24;;;;;;;8.77;7.97;;;17.40;99.40;;;;;;5015885;28;20462;-55
2021/04/29 09:08:02;;;;;;;10.00;9.00;;;17.60;98.70;;;;;;5015824;28;20479;-55
2021/04/29 09:10:38;;;;;;;10.20;9.10;;;17.50;98.60;;;;;;5016282;28;20867;-60
2021/04/29 09:13:13;;;;;;;9.63;8.60;;;17.30;98.20;;;;;;5016789;28;20929;-57
2021/04/29 09:15:40;;;;;;;10.57;9.47;;;17.40;99.00;;;;;;5031925;28;20918;-56
2021/04/29 09:18:13;;;;;;;9.80;8.37;;;17.30;98.80;;;;;;5036056;28;20414;-55
2021/04/29 09:20:49;;;;;;;9.93;7.13;;;17.30;99.00;;;;;;5038668;28;20402;-60
2021/04/29 09:23:18;;;;;;;9.25;7.20;;;17.10;98.50;;;;;;5036452;28;20386;-54
2021/04/29 09:25:58;;;;;;;9.00;8.20;;;17.30;98.70;;;;;;5034714;28;20467;-56
2021/04/29 09:28:40;;;;;;;10.00;8.53;;;17.10;98.00;;;;;;5036052;28;20397;-55
2021/04/29 09:31:14;;;;;;;12.43;8.53;;;16.50;98.70;;;;;;5045404;28;20799;-53
2021/04/29 09:33:45;;;;;;;9.93;7.50;;;16.50;99.90;;;;;;5056171;28;20481;-57
2021/04/29 09:36:26;;;;;;;10.40;9.07;;;16.40;99.70;;;;;;5056645;28;20526;-54
2021/04/29 09:39:04;;;;;;;11.07;9.97;;;16.20;99.90;;;;;;5056072;28;20897;-55
2021/04/29 09:41:39;;;;;;;11.60;10.40;;;15.70;99.90;;;;;;5056007;28;20761;-57
2021/04/29 09:44:08;;;;;;;10.53;8.90;;;15.20;99.90;;;;;;5037094;28;20207;-58
2021/04/29 09:46:43;;;;;;;10.50;8.80;;;14.60;99.90;;;;;;5035429;28;20486;-60
2021/04/29 09:49:16;;;;;;;8.77;7.97;;;14.30;99.90;;;;;;5035037;28;20417;-58
2021/04/29 09:51:41;;;;;;;8.57;7.77;;;14.40;99.90;;;;;;5036130;28;20936;-61
2021/04/29 09:54:07;;;;;;;9.37;8.57;;;14.40;99.90;;;;;;5035257;28;20520;-59
2021/04/29 09:56:32;;;;;;;9.80;8.83;;;14.50;99.90;;;;;;5035437;28;20210;-56
2021/04/29 09:58:59;;;;;;;9.60;8.60;;;14.60;99.90;;;;;;5034888;28;20253;-56
2021/04/29 10:01:26;;;;;;;11.30;9.07;;;14.50;99.90;;;;;;5035098;28;20519;-60
2021/04/29 10:03:54;;;;;;;12.00;9.27;;;14.90;99.90;;;;;;5034764;28;20451;-58
2021/04/29 10:06:21;;;;;;;10.17;9.17;;;15.40;99.90;;;;;;5034742;28;20493;-58
2021/04/29 10:08:51;;;;;;;10.30;9.27;;;15.80;99.90;;;;;;5036622;28;20775;-59
2021/04/29 10:11:22;;;;;;;9.93;8.97;;;15.90;99.90;;;;;;5035383;28;20778;-59
2021/04/29 10:13:54;;;;;;;9.03;8.13;;;16.50;99.90;;;;;;5034738;28;20383;-56
2021/04/29 10:16:22;;;;;;;9.57;8.43;;;17.00;99.90;;;;;;5034900;28;20393;-61
2021/04/29 10:18:49;;;;;;;9.33;8.10;;;17.20;99.90;;;;;;5034887;28;20759;-60
2021/04/29 10:21:17;;;;;;;8.60;7.80;;;17.40;99.90;;;;;;5034680;28;20413;-60
2021/04/29 10:23:47;;;;;;;9.67;8.73;;;17.80;99.90;;;;;;5034530;28;20446;-61
2021/04/29 10:26:24;;;;;;;8.77;8.07;;;17.60;99.90;;;;;;5034686;28;20402;-60
2021/04/29 10:29:05;;;;;;;15.37;9.53;;;17.80;99.90;;;;;;5034309;28;20382;-61
2021/04/29 10:31:33;;;;;;;9.00;7.80;;;18.30;99.90;;;;;;5046631;28;20486;-61
2021/04/29 10:34:02;;;;;;;9.13;7.47;;;18.00;99.90;;;;;;5054344;28;20932;-60
2021/04/29 10:36:54;;;;;;;9.37;7.97;;;18.10;99.90;;;;;;5054039;28;20406;-60
2021/04/29 10:39:24;;;;;;;7.60;6.90;;;18.40;99.90;;;;;;5051475;28;20843;-58
2021/04/29 10:42:01;;;;;;;7.90;7.20;;;18.90;99.90;;;;;;5053874;28;20771;-60
2021/04/29 10:44:27;;;;;;;8.73;6.97;;;18.80;99.90;;;;;;5053558;28;20556;-60
2021/04/29 10:47:01;;;;;;;9.53;7.67;;;18.70;99.00;;;;;;5039346;28;20476;-59
2021/04/29 10:49:30;;;;;;;9.97;6.60;;;18.90;99.70;;;;;;5030122;28;20200;-60
2021/04/29 10:52:00;;;;;;;6.63;6.13;;;18.80;99.50;;;;;;5016301;28;20411;-60
2021/04/29 10:54:26;;;;;;;7.23;6.63;;;18.60;99.90;;;;;;5014213;28;20947;-60
2021/04/29 10:57:10;;;;;;;8.70;7.30;;;18.80;97.20;;;;;;5014149;28;20407;-60
2021/04/29 10:59:54;;;;;;;6.13;5.53;;;18.80;96.70;;;;;;5014937;28;20388;-59
2021/04/29 11:02:32;;;;;;;8.47;6.27;;;19.90;96.30;;;;;;5014478;28;20414;-59
2021/04/29 11:04:58;;;;;;;6.60;6.00;;;20.10;95.50;;;;;;5014037;28;20459;-58
2021/04/29 11:07:27;;;;;;;6.67;6.07;;;19.80;96.60;;;;;;5014559;28;20783;-59
2021/04/29 11:10:10;;;;;;;7.53;6.37;;;19.90;97.40;;;;;;5013826;28;20457;-60
2021/04/29 11:12:53;;;;;;;9.33;5.83;;;19.60;97.50;;;;;;5013968;28;20440;-60
2021/04/29 11:15:31;;;;;;;6.50;5.90;;;19.70;97.30;;;;;;5013409;28;20470;-58
2021/04/29 11:18:10;;;;;;;6.47;5.87;;;19.90;95.70;;;;;;5019772;28;20759;-60
2021/04/29 11:20:49;;;;;;;6.80;6.10;;;18.70;96.00;;;;;;5036052;28;20405;-60
2021/04/29 11:23:38;;;;;;;6.80;5.47;;;17.60;97.10;;;;;;5033532;28;20463;-60
2021/04/29 11:26:05;;;;;;;5.43;4.93;;;17.10;97.70;;;;;;5032745;28;20430;-59
2021/04/29 11:28:30;;;;;;;6.33;5.07;;;17.70;97.50;;;;;;5031170;28;20418;-61
2021/04/29 11:30:57;;;;;;;5.00;4.50;;;18.50;96.00;;;;;;5025089;28;20425;-61
2021/04/29 11:33:33;;;;;;;4.17;3.70;;;19.10;94.10;;;;;;5033395;28;20194;-60
2021/04/29 11:35:59;;;;;;;6.17;4.70;;;18.20;93.60;;;;;;5048726;28;20964;-59
2021/04/29 11:38:26;;;;;;;5.20;4.70;;;17.60;95.60;;;;;;5053254;28;20416;-60
2021/04/29 11:40:51;;;;;;;5.93;3.93;;;18.00;95.40;;;;;;5053167;28;20497;-60
2021/04/29 11:43:17;;;;;;;6.10;5.50;;;17.80;94.90;;;;;;5052775;28;20433;-59
2021/04/29 11:45:43;;;;;;;4.33;3.67;;;17.10;95.60;;;;;;5052753;28;20614;-59
2021/04/29 11:48:13;;;;;;;5.60;5.03;;;17.00;96.40;;;;;;5037542;28;20262;-60
2021/04/29 11:50:52;;;;;;;5.30;4.50;;;16.90;96.60;;;;;;5033453;28;20421;-60
2021/04/29 11:53:26;;;;;;;5.00;4.50;;;16.70;95.80;;;;;;5032385;28;20794;-59
2021/04/29 11:56:04;;;;;;;5.83;4.60;;;16.70;96.20;;;;;;5033110;28;20425;-60
2021/04/29 11:58:30;;;;;;;5.67;4.40;;;16.50;96.70;;;;;;5033077;28;20381;-60
2021/04/29 12:00:56;;;;;;;4.23;3.83;;;16.50;96.40;;;;;;5032665;28;20415;-57
2021/04/29 12:03:25;;;;;;;4.57;4.13;;;16.50;97.60;;;;;;5033146;28;20455;-57
2021/04/29 12:05:53;;;;;;;5.17;4.67;;;16.50;96.90;;;;;;5032893;28;20233;-60
2021/04/29 12:08:23;;;;;;;6.77;4.20;;;16.70;96.60;;;;;;5032843;28;20766;-60
2021/04/29 12:10:52;;;;;;;6.00;4.33;;;17.70;96.90;;;;;;5033269;28;20394;-61
2021/04/29 12:13:28;;;;;;;3.97;3.57;;;18.70;93.80;;;;;;5033026;28;20406;-59
2021/04/29 12:16:08;;;;;;;4.10;3.70;;;19.30;93.60;;;;;;5032480;28;20468;-61
2021/04/29 12:18:39;;;;;;;4.40;4.00;;;20.40;91.60;;;;;;5033049;28;20441;-59
2021/04/29 12:21:06;;;;;;;4.00;3.60;;;20.80;90.20;;;;;;5033351;28;20395;-60
2021/04/29 12:23:32;;;;;;;3.60;3.30;;;20.40;89.00;;;;;;5038976;28;20405;-60
2021/04/29 12:26:05;;;;;;;5.23;3.10;;;20.20;90.20;;;;;;5052609;28;20775;-60
2021/04/29 12:28:35;;;;;;;4.03;3.30;;;20.30;89.10;;;;;;5052631;28;20858;-59
2021/04/29 12:31:15;;;;;;;5.80;3.57;;;19.40;89.50;;;;;;5055549;28;20480;-60
2021/04/29 12:34:06;;;;;;;5.77;3.53;;;17.90;91.80;;;;;;5055159;28;20439;-60
2021/04/29 12:36:47;;;;;;;4.97;4.07;;;17.30;93.10;;;;;;5057012;28;20471;-60
2021/04/29 12:39:15;;;;;;;5.10;3.73;;;17.00;94.70;;;;;;5056691;28;20862;-60
2021/04/29 12:41:46;;;;;;;4.93;4.53;;;17.10;94.80;;;;;;5056541;28;20397;-60
2021/04/29 12:44:11;;;;;;;6.13;5.23;;;17.10;93.20;;;;;;5055991;28;20456;-59
2021/04/29 12:46:40;;;;;;;5.30;4.90;;;17.00;93.50;;;;;;5056225;28;20973;-59
2021/04/29 12:49:10;;;;;;;9.03;5.63;;;16.90;94.30;;;;;;5040748;28;20187;-60
2021/04/29 12:51:36;;;;;;;6.03;5.00;;;17.30;93.90;;;;;;5036619;28;20385;-60